Torm Herdis — 9V5568 — position and weather

sailwx.info

Track history (hours):
 
Tides and Currents Weather Stations Pressure Air Temp Water Temp Dewpoint Dewpoint Depression Visibility Wind Speed Wind Dir Waves Ship Positions

Torm Herdis

Last reported at 2018-Jul-17 12:55 UTC. Time now 2018-Aug-14 19:28 UTC.
Position N 01°22' E 104°26'.
Warning: this ship's position is 28 days out of date.

Length 250 m; draft 12.9 m.

Type: Tanker. MMSI: 563034600.

Date/timePositionNaut miles runAvg speedWind from/ knotsBaromVisibWave heightAir tempDewpointWater temp
2018-Jul-17 12:55N 01°22' E 104°26'614.4
2018-Jul-17 12:30N 01°18' E 104°21'714.0
2018-Jul-17 11:59N 01°15' E 104°15'714.5
2018-Jul-17 11:30N 01°15' E 104°08'713.9
2018-Jul-17 11:00N 01°14' E 104°01'714.0
2018-Jul-17 10:31N 01°13' E 103°54'612.9
2018-Jul-17 10:01N 01°10' E 103°48'612.4
2018-Jul-17 09:30N 01°05' E 103°44'611.2
2018-Jul-17 09:00N 01°03' E 103°39'714.8
2018-Jul-17 08:30N 01°06' E 103°33'814.7
2018-Jul-17 07:58N 01°10' E 103°26'  
Track history (hours):
 
Tides and Currents Weather Stations Pressure Air Temp Water Temp Dewpoint Dewpoint Depression Visibility Wind Speed Wind Dir Waves Ship Positions

Torm Herdis

Last reported at 2018-Jul-17 12:55 UTC. Time now 2018-Aug-14 19:28 UTC.
Position N 01°22' E 104°26'.
Warning: this ship's position is 28 days out of date.

Length 250 m; draft 12.9 m.

Type: Tanker. MMSI: 563034600.

Date/timePositionNaut miles runAvg speedWind from/ knotsBaromVisibWave heightAir tempDewpointWater temp
2018-Jul-17 12:55N 01°22' E 104°26'614.4
2018-Jul-17 12:30N 01°18' E 104°21'714.0
2018-Jul-17 11:59N 01°15' E 104°15'714.5
2018-Jul-17 11:30N 01°15' E 104°08'713.9
2018-Jul-17 11:00N 01°14' E 104°01'714.0
2018-Jul-17 10:31N 01°13' E 103°54'612.9
2018-Jul-17 10:01N 01°10' E 103°48'612.4
2018-Jul-17 09:30N 01°05' E 103°44'611.2
2018-Jul-17 09:00N 01°03' E 103°39'714.8
2018-Jul-17 08:30N 01°06' E 103°33'814.7
2018-Jul-17 07:58N 01°10' E 103°26'  

Dump ship's entire track history